sensor_id;sensor_type;location;lat;lon;timestamp;pressure;altitude;pressure_sealevel;temperature;humidity
71476;BME280;59286;59.274;17.974;2023-05-22T00:01:02;102187.25;;;9.90;75.23
71476;BME280;59286;59.274;17.974;2023-05-22T00:03:29;102171.16;;;9.76;74.91
71476;BME280;59286;59.274;17.974;2023-05-22T00:05:54;102184.63;;;9.90;74.78
71476;BME280;59286;59.274;17.974;2023-05-22T00:08:24;102145.41;;;9.63;74.84
71476;BME280;59286;59.274;17.974;2023-05-22T00:10:49;102173.53;;;9.78;75.51
71476;BME280;59286;59.274;17.974;2023-05-22T00:13:14;102150.09;;;9.61;75.73
71476;BME280;59286;59.274;17.974;2023-05-22T00:15:40;102178.75;;;9.78;75.08
71476;BME280;59286;59.274;17.974;2023-05-22T00:18:05;102150.63;;;9.63;75.52
71476;BME280;59286;59.274;17.974;2023-05-22T00:20:32;102110.38;;;9.38;74.98
71476;BME280;59286;59.274;17.974;2023-05-22T00:23:06;102169.09;;;9.78;74.53
71476;BME280;59286;59.274;17.974;2023-05-22T00:25:34;102152.47;;;9.68;74.52
71476;BME280;59286;59.274;17.974;2023-05-22T00:28:00;102176.16;;;9.83;75.18
71476;BME280;59286;59.274;17.974;2023-05-22T00:30:26;102142.69;;;9.53;74.83
71476;BME280;59286;59.274;17.974;2023-05-22T00:32:51;102142.38;;;9.50;75.22
71476;BME280;59286;59.274;17.974;2023-05-22T00:35:17;102151.00;;;9.45;75.32
71476;BME280;59286;59.274;17.974;2023-05-22T00:37:42;102177.53;;;9.59;75.38
71476;BME280;59286;59.274;17.974;2023-05-22T00:40:10;102173.06;;;9.54;75.62
71476;BME280;59286;59.274;17.974;2023-05-22T00:42:36;102179.28;;;9.48;76.24
71476;BME280;59286;59.274;17.974;2023-05-22T00:45:02;102148.72;;;9.27;76.34
71476;BME280;59286;59.274;17.974;2023-05-22T00:47:27;102176.56;;;9.38;76.62
71476;BME280;59286;59.274;17.974;2023-05-22T00:49:53;102173.34;;;9.31;76.69
71476;BME280;59286;59.274;17.974;2023-05-22T00:52:18;102139.69;;;9.13;76.71
71476;BME280;59286;59.274;17.974;2023-05-22T00:54:44;102184.69;;;9.42;77.16
71476;BME280;59286;59.274;17.974;2023-05-22T00:57:10;102174.19;;;9.37;76.25
71476;BME280;59286;59.274;17.974;2023-05-22T00:59:35;102178.53;;;9.26;77.45
71476;BME280;59286;59.274;17.974;2023-05-22T01:02:01;102175.94;;;9.26;77.75
71476;BME280;59286;59.274;17.974;2023-05-22T01:04:27;102183.56;;;9.33;77.96
71476;BME280;59286;59.274;17.974;2023-05-22T01:06:56;102173.78;;;9.23;77.86
71476;BME280;59286;59.274;17.974;2023-05-22T01:09:23;102181.75;;;9.33;78.20
71476;BME280;59286;59.274;17.974;2023-05-22T01:11:59;102179.69;;;9.35;78.12
71476;BME280;59286;59.274;17.974;2023-05-22T01:17:22;102169.22;;;9.35;78.00
71476;BME280;59286;59.274;17.974;2023-05-22T01:20:24;102171.94;;;9.45;77.73
71476;BME280;59286;59.274;17.974;2023-05-22T01:23:22;102179.78;;;9.45;77.95
71476;BME280;59286;59.274;17.974;2023-05-22T01:26:08;102172.25;;;9.27;78.43
71476;BME280;59286;59.274;17.974;2023-05-22T01:28:52;102159.81;;;9.13;78.96
71476;BME280;59286;59.274;17.974;2023-05-22T01:31:23;102163.81;;;9.20;77.31
71476;BME280;59286;59.274;17.974;2023-05-22T01:33:58;102173.56;;;9.25;77.88
71476;BME280;59286;59.274;17.974;2023-05-22T01:36:28;102174.72;;;9.12;78.11
71476;BME280;59286;59.274;17.974;2023-05-22T01:38:55;102158.44;;;9.05;77.96
71476;BME280;59286;59.274;17.974;2023-05-22T01:41:23;102147.38;;;8.98;77.97
71476;BME280;59286;59.274;17.974;2023-05-22T01:43:48;102166.94;;;9.17;78.00
71476;BME280;59286;59.274;17.974;2023-05-22T01:46:13;102176.31;;;9.13;78.12
71476;BME280;59286;59.274;17.974;2023-05-22T01:48:39;102153.59;;;8.92;78.87
71476;BME280;59286;59.274;17.974;2023-05-22T01:51:30;102170.38;;;8.96;79.22
71476;BME280;59286;59.274;17.974;2023-05-22T01:54:06;102168.78;;;8.95;78.53
71476;BME280;59286;59.274;17.974;2023-05-22T01:57:03;102182.72;;;9.01;79.24
71476;BME280;59286;59.274;17.974;2023-05-22T01:59:41;102179.22;;;8.95;79.32
71476;BME280;59286;59.274;17.974;2023-05-22T02:02:09;102178.38;;;8.90;78.95
71476;BME280;59286;59.274;17.974;2023-05-22T02:04:42;102183.84;;;8.88;79.42
71476;BME280;59286;59.274;17.974;2023-05-22T02:07:11;102179.00;;;8.75;80.14
71476;BME280;59286;59.274;17.974;2023-05-22T02:09:37;102182.75;;;8.84;78.90
71476;BME280;59286;59.274;17.974;2023-05-22T02:12:04;102159.94;;;8.74;79.08
71476;BME280;59286;59.274;17.974;2023-05-22T02:14:30;102170.19;;;8.81;78.81
71476;BME280;59286;59.274;17.974;2023-05-22T02:16:56;102170.91;;;8.76;78.71
71476;BME280;59286;59.274;17.974;2023-05-22T02:19:22;102135.88;;;8.56;78.77
71476;BME280;59286;59.274;17.974;2023-05-22T02:21:48;102123.25;;;8.48;79.19
71476;BME280;59286;59.274;17.974;2023-05-22T02:24:13;102187.94;;;8.79;79.55
71476;BME280;59286;59.274;17.974;2023-05-22T02:26:39;102138.19;;;8.52;79.77
71476;BME280;59286;59.274;17.974;2023-05-22T02:29:04;102162.16;;;8.66;80.04
71476;BME280;59286;59.274;17.974;2023-05-22T02:31:30;102159.50;;;8.61;81.09
71476;BME280;59286;59.274;17.974;2023-05-22T02:33:55;102125.66;;;8.33;81.37
71476;BME280;59286;59.274;17.974;2023-05-22T02:36:21;102176.28;;;8.65;81.52
71476;BME280;59286;59.274;17.974;2023-05-22T02:38:47;102138.13;;;8.47;80.76
71476;BME280;59286;59.274;17.974;2023-05-22T02:41:12;102168.53;;;8.75;81.60
71476;BME280;59286;59.274;17.974;2023-05-22T02:43:38;102172.19;;;8.74;81.37
71476;BME280;59286;59.274;17.974;2023-05-22T02:46:03;102167.38;;;8.66;82.26
71476;BME280;59286;59.274;17.974;2023-05-22T02:48:29;102152.72;;;8.43;82.61
71476;BME280;59286;59.274;17.974;2023-05-22T02:50:54;102112.88;;;8.15;83.02
71476;BME280;59286;59.274;17.974;2023-05-22T02:53:20;102157.22;;;8.48;82.81
71476;BME280;59286;59.274;17.974;2023-05-22T02:55:46;102166.03;;;8.63;82.02
71476;BME280;59286;59.274;17.974;2023-05-22T02:58:12;102155.97;;;8.72;81.68
71476;BME280;59286;59.274;17.974;2023-05-22T03:00:41;102101.56;;;8.47;81.23
71476;BME280;59286;59.274;17.974;2023-05-22T03:03:07;102122.94;;;8.66;81.48
71476;BME280;59286;59.274;17.974;2023-05-22T03:05:32;102157.34;;;9.01;80.52
71476;BME280;59286;59.274;17.974;2023-05-22T03:07:58;102144.50;;;9.00;80.37
71476;BME280;59286;59.274;17.974;2023-05-22T03:10:23;102155.94;;;9.15;80.34
71476;BME280;59286;59.274;17.974;2023-05-22T03:12:49;102150.94;;;9.14;80.40
71476;BME280;59286;59.274;17.974;2023-05-22T03:15:16;102153.13;;;9.22;80.73
71476;BME280;59286;59.274;17.974;2023-05-22T03:17:42;102159.72;;;9.29;80.46
71476;BME280;59286;59.274;17.974;2023-05-22T03:20:08;102124.75;;;9.14;80.92
71476;BME280;59286;59.274;17.974;2023-05-22T03:22:33;102162.50;;;9.44;79.91
71476;BME280;59286;59.274;17.974;2023-05-22T03:24:58;102145.69;;;9.40;80.37
71476;BME280;59286;59.274;17.974;2023-05-22T03:27:24;102161.50;;;9.50;80.17
71476;BME280;59286;59.274;17.974;2023-05-22T03:29:49;102146.34;;;9.52;79.63
71476;BME280;59286;59.274;17.974;2023-05-22T03:32:15;102113.03;;;9.43;79.36
71476;BME280;59286;59.274;17.974;2023-05-22T03:34:41;102153.84;;;9.75;79.07
71476;BME280;59286;59.274;17.974;2023-05-22T03:37:07;102118.09;;;9.54;79.09
71476;BME280;59286;59.274;17.974;2023-05-22T03:39:33;102140.03;;;9.80;78.76
71476;BME280;59286;59.274;17.974;2023-05-22T03:41:59;102145.13;;;9.97;78.37
71476;BME280;59286;59.274;17.974;2023-05-22T03:44:25;102157.25;;;10.08;78.25
71476;BME280;59286;59.274;17.974;2023-05-22T03:46:50;102149.16;;;10.09;78.26
71476;BME280;59286;59.274;17.974;2023-05-22T03:49:16;102140.28;;;10.10;77.86
71476;BME280;59286;59.274;17.974;2023-05-22T03:51:41;102140.53;;;10.14;78.17
71476;BME280;59286;59.274;17.974;2023-05-22T03:54:06;102138.72;;;10.14;77.87
71476;BME280;59286;59.274;17.974;2023-05-22T03:56:32;102142.19;;;10.25;77.50
71476;BME280;59286;59.274;17.974;2023-05-22T03:58:57;102149.56;;;10.33;77.53
71476;BME280;59286;59.274;17.974;2023-05-22T04:01:22;102106.75;;;10.12;77.37
71476;BME280;59286;59.274;17.974;2023-05-22T04:03:48;102103.91;;;10.24;77.21
71476;BME280;59286;59.274;17.974;2023-05-22T04:06:13;102112.38;;;10.36;77.32
71476;BME280;59286;59.274;17.974;2023-05-22T04:08:38;102103.50;;;10.52;76.86
71476;BME280;59286;59.274;17.974;2023-05-22T04:11:04;102143.22;;;10.86;76.68
71476;BME280;59286;59.274;17.974;2023-05-22T04:13:30;102142.78;;;11.09;76.01
71476;BME280;59286;59.274;17.974;2023-05-22T04:15:55;102100.22;;;10.97;75.57
71476;BME280;59286;59.274;17.974;2023-05-22T04:18:21;102122.06;;;11.32;74.67
71476;BME280;59286;59.274;17.974;2023-05-22T04:20:46;102109.75;;;11.38;74.06
71476;BME280;59286;59.274;17.974;2023-05-22T04:23:12;102141.28;;;11.58;73.71
71476;BME280;59286;59.274;17.974;2023-05-22T04:25:37;102135.75;;;11.64;73.63
71476;BME280;59286;59.274;17.974;2023-05-22T04:28:03;102137.09;;;11.82;73.83
71476;BME280;59286;59.274;17.974;2023-05-22T04:30:31;102137.31;;;12.06;72.99
71476;BME280;59286;59.274;17.974;2023-05-22T04:33:02;102135.19;;;12.13;72.65
71476;BME280;59286;59.274;17.974;2023-05-22T04:35:29;102106.28;;;12.13;72.02
71476;BME280;59286;59.274;17.974;2023-05-22T04:37:58;102133.03;;;12.40;71.61
71476;BME280;59286;59.274;17.974;2023-05-22T04:40:27;102129.00;;;12.57;71.04
71476;BME280;59286;59.274;17.974;2023-05-22T04:42:54;102100.91;;;12.53;70.49
71476;BME280;59286;59.274;17.974;2023-05-22T04:45:23;102116.81;;;12.77;69.84
71476;BME280;59286;59.274;17.974;2023-05-22T04:47:50;102125.69;;;12.91;69.85
71476;BME280;59286;59.274;17.974;2023-05-22T04:50:19;102116.97;;;12.95;69.65
71476;BME280;59286;59.274;17.974;2023-05-22T04:52:45;102127.69;;;13.14;69.00
71476;BME280;59286;59.274;17.974;2023-05-22T04:55:11;102130.50;;;13.27;69.30
71476;BME280;59286;59.274;17.974;2023-05-22T04:57:38;102121.66;;;13.47;69.59
71476;BME280;59286;59.274;17.974;2023-05-22T05:00:04;102100.16;;;13.35;68.44
71476;BME280;59286;59.274;17.974;2023-05-22T05:02:31;102119.13;;;13.66;67.27
71476;BME280;59286;59.274;17.974;2023-05-22T05:04:56;102112.97;;;13.75;66.81
71476;BME280;59286;59.274;17.974;2023-05-22T05:07:21;102096.72;;;13.92;66.91
71476;BME280;59286;59.274;17.974;2023-05-22T05:09:48;102078.63;;;14.09;65.56
71476;BME280;59286;59.274;17.974;2023-05-22T05:12:14;102074.03;;;14.43;65.01
71476;BME280;59286;59.274;17.974;2023-05-22T05:14:40;102094.50;;;14.88;63.88
71476;BME280;59286;59.274;17.974;2023-05-22T05:17:05;102099.94;;;15.15;62.47
71476;BME280;59286;59.274;17.974;2023-05-22T05:19:30;102071.78;;;15.24;60.87
71476;BME280;59286;59.274;17.974;2023-05-22T05:21:56;102088.72;;;15.56;60.40
71476;BME280;59286;59.274;17.974;2023-05-22T05:24:21;102091.59;;;15.73;58.70
71476;BME280;59286;59.274;17.974;2023-05-22T05:26:48;102098.28;;;15.97;57.56
71476;BME280;59286;59.274;17.974;2023-05-22T05:29:14;102086.25;;;16.05;56.75
71476;BME280;59286;59.274;17.974;2023-05-22T05:31:39;102087.81;;;16.33;57.55
71476;BME280;59286;59.274;17.974;2023-05-22T05:34:04;102041.16;;;16.23;57.04
71476;BME280;59286;59.274;17.974;2023-05-22T05:36:30;102084.09;;;16.83;54.73
71476;BME280;59286;59.274;17.974;2023-05-22T05:38:55;102064.59;;;17.01;55.68
71476;BME280;59286;59.274;17.974;2023-05-22T05:41:22;102073.97;;;17.29;56.33
71476;BME280;59286;59.274;17.974;2023-05-22T05:43:47;102055.13;;;17.31;53.93
71476;BME280;59286;59.274;17.974;2023-05-22T05:46:14;102053.88;;;17.51;55.53
71476;BME280;59286;59.274;17.974;2023-05-22T05:48:39;102070.53;;;17.82;52.37
71476;BME280;59286;59.274;17.974;2023-05-22T05:51:05;102046.19;;;17.80;53.54
71476;BME280;59286;59.274;17.974;2023-05-22T05:53:30;102080.97;;;18.26;53.04
71476;BME280;59286;59.274;17.974;2023-05-22T05:55:56;102060.84;;;18.33;53.37
71476;BME280;59286;59.274;17.974;2023-05-22T05:58:21;102077.16;;;18.58;49.04
71476;BME280;59286;59.274;17.974;2023-05-22T06:00:46;102045.59;;;18.48;49.90
71476;BME280;59286;59.274;17.974;2023-05-22T06:03:12;102077.47;;;18.73;51.20
71476;BME280;59286;59.274;17.974;2023-05-22T06:05:38;102078.56;;;18.89;49.70
71476;BME280;59286;59.274;17.974;2023-05-22T06:08:04;102038.25;;;18.79;50.70
71476;BME280;59286;59.274;17.974;2023-05-22T06:10:30;102058.22;;;19.10;49.15
71476;BME280;59286;59.274;17.974;2023-05-22T06:12:55;102053.94;;;19.26;48.06
71476;BME280;59286;59.274;17.974;2023-05-22T06:15:21;102070.22;;;19.42;46.60
71476;BME280;59286;59.274;17.974;2023-05-22T06:17:46;102040.03;;;19.29;48.10
71476;BME280;59286;59.274;17.974;2023-05-22T06:20:12;102062.53;;;19.49;48.49
71476;BME280;59286;59.274;17.974;2023-05-22T06:22:38;102081.63;;;19.89;47.00
71476;BME280;59286;59.274;17.974;2023-05-22T06:25:04;102087.47;;;20.11;47.54
71476;BME280;59286;59.274;17.974;2023-05-22T06:27:29;102076.69;;;20.08;43.82
71476;BME280;59286;59.274;17.974;2023-05-22T06:29:55;102093.47;;;20.38;43.72
71476;BME280;59286;59.274;17.974;2023-05-22T06:32:24;102083.72;;;20.42;43.47
71476;BME280;59286;59.274;17.974;2023-05-22T06:34:50;102090.03;;;20.58;43.21
71476;BME280;59286;59.274;17.974;2023-05-22T06:37:18;102083.91;;;20.57;41.41
71476;BME280;59286;59.274;17.974;2023-05-22T06:39:43;102065.72;;;20.59;42.97
71476;BME280;59286;59.274;17.974;2023-05-22T06:42:09;102067.28;;;20.81;42.65
71476;BME280;59286;59.274;17.974;2023-05-22T06:44:34;102073.66;;;20.88;41.91
71476;BME280;59286;59.274;17.974;2023-05-22T06:46:59;102062.72;;;20.81;43.05
71476;BME280;59286;59.274;17.974;2023-05-22T06:49:25;102063.50;;;21.02;43.45
71476;BME280;59286;59.274;17.974;2023-05-22T06:51:50;102067.25;;;21.22;43.04
71476;BME280;59286;59.274;17.974;2023-05-22T06:54:15;102031.66;;;21.18;40.11
71476;BME280;59286;59.274;17.974;2023-05-22T06:56:41;102065.28;;;21.55;39.34
71476;BME280;59286;59.274;17.974;2023-05-22T06:59:09;102050.72;;;21.41;40.03
71476;BME280;59286;59.274;17.974;2023-05-22T07:01:34;102040.69;;;21.38;41.45
71476;BME280;59286;59.274;17.974;2023-05-22T07:04:00;102050.72;;;21.53;39.03
71476;BME280;59286;59.274;17.974;2023-05-22T07:06:26;102039.38;;;21.44;41.13
71476;BME280;59286;59.274;17.974;2023-05-22T07:08:52;102054.72;;;21.71;39.51
71476;BME280;59286;59.274;17.974;2023-05-22T07:11:18;102054.28;;;21.69;39.40
71476;BME280;59286;59.274;17.974;2023-05-22T07:13:43;102070.78;;;21.83;39.12
71476;BME280;59286;59.274;17.974;2023-05-22T07:16:08;102045.88;;;21.91;38.01
71476;BME280;59286;59.274;17.974;2023-05-22T07:18:34;102050.94;;;22.08;39.25
71476;BME280;59286;59.274;17.974;2023-05-22T07:21:04;102059.66;;;22.17;38.09
71476;BME280;59286;59.274;17.974;2023-05-22T07:23:29;102036.72;;;21.92;37.95
71476;BME280;59286;59.274;17.974;2023-05-22T07:25:54;102036.28;;;22.02;37.00
71476;BME280;59286;59.274;17.974;2023-05-22T07:28:20;102049.38;;;22.31;37.83
71476;BME280;59286;59.274;17.974;2023-05-22T07:30:45;102049.47;;;22.35;37.16
71476;BME280;59286;59.274;17.974;2023-05-22T07:33:11;102047.88;;;22.46;38.18
71476;BME280;59286;59.274;17.974;2023-05-22T07:35:36;102030.56;;;22.28;37.64
71476;BME280;59286;59.274;17.974;2023-05-22T07:38:02;102036.03;;;22.19;36.87
71476;BME280;59286;59.274;17.974;2023-05-22T07:40:28;102041.38;;;22.19;37.05
71476;BME280;59286;59.274;17.974;2023-05-22T07:42:53;102015.81;;;21.94;37.16
71476;BME280;59286;59.274;17.974;2023-05-22T07:45:18;102037.38;;;22.13;36.62
71476;BME280;59286;59.274;17.974;2023-05-22T07:47:44;102042.94;;;22.20;37.75
71476;BME280;59286;59.274;17.974;2023-05-22T07:50:09;102022.00;;;22.22;36.49
71476;BME280;59286;59.274;17.974;2023-05-22T07:52:35;102025.94;;;22.40;37.57
71476;BME280;59286;59.274;17.974;2023-05-22T07:55:00;102017.91;;;22.52;36.38
71476;BME280;59286;59.274;17.974;2023-05-22T07:57:25;102037.03;;;22.66;35.60
71476;BME280;59286;59.274;17.974;2023-05-22T07:59:51;102038.06;;;22.62;35.44
71476;BME280;59286;59.274;17.974;2023-05-22T08:02:17;102024.72;;;22.77;37.44
71476;BME280;59286;59.274;17.974;2023-05-22T08:04:42;102044.66;;;22.80;35.37
71476;BME280;59286;59.274;17.974;2023-05-22T08:07:08;102043.00;;;22.75;34.44
71476;BME280;59286;59.274;17.974;2023-05-22T08:09:34;102030.38;;;22.60;34.57
71476;BME280;59286;59.274;17.974;2023-05-22T08:11:59;102039.22;;;22.76;36.56
71476;BME280;59286;59.274;17.974;2023-05-22T08:14:25;102044.19;;;22.90;36.99
71476;BME280;59286;59.274;17.974;2023-05-22T08:16:50;102050.72;;;22.92;37.92
71476;BME280;59286;59.274;17.974;2023-05-22T08:19:16;102032.53;;;22.82;38.56
71476;BME280;59286;59.274;17.974;2023-05-22T08:21:41;102011.41;;;22.93;36.54
71476;BME280;59286;59.274;17.974;2023-05-22T08:24:07;102038.88;;;23.21;36.93
71476;BME280;59286;59.274;17.974;2023-05-22T08:26:32;102044.94;;;23.34;37.84
71476;BME280;59286;59.274;17.974;2023-05-22T08:28:58;102039.28;;;23.07;35.51
71476;BME280;59286;59.274;17.974;2023-05-22T08:31:24;102017.88;;;22.64;36.19
71476;BME280;59286;59.274;17.974;2023-05-22T08:33:50;101998.75;;;22.23;37.30
71476;BME280;59286;59.274;17.974;2023-05-22T08:36:15;102007.66;;;22.14;37.65
71476;BME280;59286;59.274;17.974;2023-05-22T08:38:41;102035.91;;;22.15;37.58
71476;BME280;59286;59.274;17.974;2023-05-22T08:41:07;102012.69;;;22.04;38.92
71476;BME280;59286;59.274;17.974;2023-05-22T08:43:34;101987.31;;;21.98;37.16
71476;BME280;59286;59.274;17.974;2023-05-22T08:46:03;102030.31;;;22.33;37.45
71476;BME280;59286;59.274;17.974;2023-05-22T08:48:30;101998.06;;;22.26;38.05
71476;BME280;59286;59.274;17.974;2023-05-22T08:50:58;102014.34;;;22.48;37.82
71476;BME280;59286;59.274;17.974;2023-05-22T08:53:27;102003.56;;;22.05;37.39
71476;BME280;59286;59.274;17.974;2023-05-22T08:55:53;101987.53;;;22.05;38.22
71476;BME280;59286;59.274;17.974;2023-05-22T08:58:20;101984.84;;;22.17;37.48
71476;BME280;59286;59.274;17.974;2023-05-22T09:00:46;101969.66;;;22.21;38.92
71476;BME280;59286;59.274;17.974;2023-05-22T09:03:12;101984.94;;;22.21;37.59
71476;BME280;59286;59.274;17.974;2023-05-22T09:05:39;101972.19;;;22.02;39.42
71476;BME280;59286;59.274;17.974;2023-05-22T09:08:05;101992.91;;;22.33;38.90
71476;BME280;59286;59.274;17.974;2023-05-22T09:10:34;101968.16;;;22.08;37.59
71476;BME280;59286;59.274;17.974;2023-05-22T09:13:06;101984.53;;;22.34;37.93
71476;BME280;59286;59.274;17.974;2023-05-22T09:15:34;101995.00;;;22.39;36.90
71476;BME280;59286;59.274;17.974;2023-05-22T09:18:04;101984.97;;;22.48;38.44
71476;BME280;59286;59.274;17.974;2023-05-22T09:20:34;101983.03;;;22.61;39.02
71476;BME280;59286;59.274;17.974;2023-05-22T09:23:00;101982.38;;;22.64;38.96
71476;BME280;59286;59.274;17.974;2023-05-22T09:25:26;101971.16;;;22.46;36.07
71476;BME280;59286;59.274;17.974;2023-05-22T09:27:52;101971.00;;;22.55;37.46
71476;BME280;59286;59.274;17.974;2023-05-22T09:30:21;101964.22;;;22.57;37.80
71476;BME280;59286;59.274;17.974;2023-05-22T09:32:49;101969.78;;;22.52;36.50
71476;BME280;59286;59.274;17.974;2023-05-22T09:35:15;101939.56;;;22.36;38.45
71476;BME280;59286;59.274;17.974;2023-05-22T09:37:40;101938.50;;;22.25;37.32
71476;BME280;59286;59.274;17.974;2023-05-22T09:40:07;101940.06;;;22.26;38.91
71476;BME280;59286;59.274;17.974;2023-05-22T09:42:33;101964.00;;;22.50;37.84
71476;BME280;59286;59.274;17.974;2023-05-22T09:45:07;101968.44;;;22.58;37.31
71476;BME280;59286;59.274;17.974;2023-05-22T09:47:35;101957.53;;;22.63;37.39
71476;BME280;59286;59.274;17.974;2023-05-22T09:50:03;101957.88;;;22.62;37.14
71476;BME280;59286;59.274;17.974;2023-05-22T09:52:34;101952.09;;;22.48;36.19
71476;BME280;59286;59.274;17.974;2023-05-22T09:55:07;101952.59;;;22.65;37.63
71476;BME280;59286;59.274;17.974;2023-05-22T09:57:43;101959.69;;;22.73;37.35
71476;BME280;59286;59.274;17.974;2023-05-22T10:00:10;101939.16;;;22.77;36.20
71476;BME280;59286;59.274;17.974;2023-05-22T10:02:41;101941.59;;;22.82;37.67
71476;BME280;59286;59.274;17.974;2023-05-22T10:05:08;101939.34;;;22.84;34.69
71476;BME280;59286;59.274;17.974;2023-05-22T10:07:44;101896.63;;;22.57;34.68
71476;BME280;59286;59.274;17.974;2023-05-22T10:10:11;101921.47;;;22.57;33.70
71476;BME280;59286;59.274;17.974;2023-05-22T10:12:44;101931.22;;;22.65;35.02
71476;BME280;59286;59.274;17.974;2023-05-22T10:15:12;101910.56;;;22.50;35.50
71476;BME280;59286;59.274;17.974;2023-05-22T10:17:38;101912.44;;;22.50;36.36
71476;BME280;59286;59.274;17.974;2023-05-22T10:20:06;101924.66;;;22.63;34.39
71476;BME280;59286;59.274;17.974;2023-05-22T10:22:37;101912.31;;;22.58;38.00
71476;BME280;59286;59.274;17.974;2023-05-22T10:25:03;101919.31;;;22.63;35.48
71476;BME280;59286;59.274;17.974;2023-05-22T10:27:29;101905.56;;;22.49;35.67
71476;BME280;59286;59.274;17.974;2023-05-22T10:30:05;101867.97;;;22.14;34.67
71476;BME280;59286;59.274;17.974;2023-05-22T10:35:20;101884.41;;;22.44;34.95
71476;BME280;59286;59.274;17.974;2023-05-22T10:37:52;101899.69;;;22.43;34.35
71476;BME280;59286;59.274;17.974;2023-05-22T10:40:30;101894.78;;;22.45;35.40
71476;BME280;59286;59.274;17.974;2023-05-22T10:43:00;101881.38;;;22.57;38.76
71476;BME280;59286;59.274;17.974;2023-05-22T10:45:27;101880.00;;;22.63;35.29
71476;BME280;59286;59.274;17.974;2023-05-22T10:48:07;101872.41;;;22.65;37.28
71476;BME280;59286;59.274;17.974;2023-05-22T10:50:35;101880.78;;;22.79;37.17
71476;BME280;59286;59.274;17.974;2023-05-22T10:53:27;101878.09;;;22.79;37.45
71476;BME280;59286;59.274;17.974;2023-05-22T10:55:57;101885.34;;;22.94;36.39
71476;BME280;59286;59.274;17.974;2023-05-22T10:58:30;101867.66;;;22.74;34.35
71476;BME280;59286;59.274;17.974;2023-05-22T11:01:15;101868.59;;;22.66;35.27
71476;BME280;59286;59.274;17.974;2023-05-22T11:03:50;101860.25;;;22.83;38.02
71476;BME280;59286;59.274;17.974;2023-05-22T11:14:40;101848.13;;;23.05;37.38
71476;BME280;59286;59.274;17.974;2023-05-22T11:17:05;101848.06;;;23.01;36.24
71476;BME280;59286;59.274;17.974;2023-05-22T11:19:31;101840.00;;;22.82;35.15
71476;BME280;59286;59.274;17.974;2023-05-22T11:22:00;101837.47;;;22.89;36.60
71476;BME280;59286;59.274;17.974;2023-05-22T11:24:31;101840.09;;;23.05;35.38
71476;BME280;59286;59.274;17.974;2023-05-22T11:27:07;101829.25;;;23.14;35.72
71476;BME280;59286;59.274;17.974;2023-05-22T11:29:33;101842.63;;;23.14;37.02
71476;BME280;59286;59.274;17.974;2023-05-22T11:31:59;101825.56;;;23.02;35.06
71476;BME280;59286;59.274;17.974;2023-05-22T11:34:25;101828.31;;;22.90;35.63
71476;BME280;59286;59.274;17.974;2023-05-22T11:37:00;101831.25;;;22.85;34.42
71476;BME280;59286;59.274;17.974;2023-05-22T11:39:25;101817.47;;;22.68;35.80
71476;BME280;59286;59.274;17.974;2023-05-22T11:41:51;101828.78;;;22.61;35.47
71476;BME280;59286;59.274;17.974;2023-05-22T11:44:16;101805.09;;;22.48;35.02
71476;BME280;59286;59.274;17.974;2023-05-22T11:46:42;101811.94;;;22.61;34.97
71476;BME280;59286;59.274;17.974;2023-05-22T11:49:10;101798.94;;;22.59;36.16
71476;BME280;59286;59.274;17.974;2023-05-22T11:51:38;101778.38;;;22.48;35.65
71476;BME280;59286;59.274;17.974;2023-05-22T11:54:05;101811.53;;;22.74;34.75
71476;BME280;59286;59.274;17.974;2023-05-22T11:56:30;101795.38;;;22.55;35.00
71476;BME280;59286;59.274;17.974;2023-05-22T11:58:56;101805.22;;;22.67;34.45
71476;BME280;59286;59.274;17.974;2023-05-22T12:01:24;101756.66;;;22.34;36.11
71476;BME280;59286;59.274;17.974;2023-05-22T12:03:50;101799.25;;;22.73;36.68
71476;BME280;59286;59.274;17.974;2023-05-22T12:06:16;101754.28;;;22.60;35.62
71476;BME280;59286;59.274;17.974;2023-05-22T12:08:42;101802.78;;;22.93;34.02
71476;BME280;59286;59.274;17.974;2023-05-22T12:11:10;101777.13;;;22.73;36.09
71476;BME280;59286;59.274;17.974;2023-05-22T12:13:35;101791.00;;;22.78;35.64
71476;BME280;59286;59.274;17.974;2023-05-22T12:16:01;101788.75;;;22.80;34.08
71476;BME280;59286;59.274;17.974;2023-05-22T12:18:34;101791.00;;;22.78;35.15
71476;BME280;59286;59.274;17.974;2023-05-22T12:21:00;101774.59;;;22.64;34.75
71476;BME280;59286;59.274;17.974;2023-05-22T12:23:26;101776.16;;;22.65;34.49
71476;BME280;59286;59.274;17.974;2023-05-22T12:25:56;101781.94;;;22.67;34.64
71476;BME280;59286;59.274;17.974;2023-05-22T12:28:22;101763.47;;;22.47;34.24
71476;BME280;59286;59.274;17.974;2023-05-22T12:30:51;101769.41;;;22.40;34.52
71476;BME280;59286;59.274;17.974;2023-05-22T12:33:17;101761.06;;;22.42;35.13
71476;BME280;59286;59.274;17.974;2023-05-22T12:35:44;101753.66;;;22.51;35.04
71476;BME280;59286;59.274;17.974;2023-05-22T12:38:10;101757.44;;;22.50;34.19
71476;BME280;59286;59.274;17.974;2023-05-22T12:40:37;101747.09;;;22.33;34.55
71476;BME280;59286;59.274;17.974;2023-05-22T12:43:02;101751.38;;;22.53;35.46
71476;BME280;59286;59.274;17.974;2023-05-22T12:45:28;101751.13;;;22.73;35.53
71476;BME280;59286;59.274;17.974;2023-05-22T12:47:53;101744.53;;;22.67;34.84
71476;BME280;59286;59.274;17.974;2023-05-22T12:50:18;101717.28;;;22.46;33.87
71476;BME280;59286;59.274;17.974;2023-05-22T12:52:44;101728.47;;;22.52;34.50
71476;BME280;59286;59.274;17.974;2023-05-22T12:55:10;101738.13;;;22.41;34.33
71476;BME280;59286;59.274;17.974;2023-05-22T12:57:35;101739.06;;;22.33;34.24